sensor_id;sensor_type;location;lat;lon;timestamp;P1;durP1;ratioP1;P2;durP2;ratioP2
60314;SDS011;46159;42.550;21.904;2023-07-31T00:01:36;7.93;;;4.63;;
60314;SDS011;46159;42.550;21.904;2023-07-31T00:04:02;7.35;;;4.35;;
60314;SDS011;46159;42.550;21.904;2023-07-31T00:06:28;9.52;;;5.32;;
60314;SDS011;46159;42.550;21.904;2023-07-31T00:08:55;10.35;;;6.63;;
60314;SDS011;46159;42.550;21.904;2023-07-31T00:11:21;7.60;;;4.18;;
60314;SDS011;46159;42.550;21.904;2023-07-31T00:13:47;7.13;;;4.50;;
60314;SDS011;46159;42.550;21.904;2023-07-31T00:16:13;8.52;;;4.80;;
60314;SDS011;46159;42.550;21.904;2023-07-31T00:18:39;7.55;;;4.10;;
60314;SDS011;46159;42.550;21.904;2023-07-31T00:21:05;10.15;;;4.40;;
60314;SDS011;46159;42.550;21.904;2023-07-31T00:23:31;8.48;;;4.30;;
60314;SDS011;46159;42.550;21.904;2023-07-31T00:25:57;7.53;;;4.45;;
60314;SDS011;46159;42.550;21.904;2023-07-31T00:28:24;7.38;;;4.95;;
60314;SDS011;46159;42.550;21.904;2023-07-31T00:30:50;11.52;;;5.63;;
60314;SDS011;46159;42.550;21.904;2023-07-31T00:33:17;8.57;;;5.15;;
60314;SDS011;46159;42.550;21.904;2023-07-31T00:35:43;9.00;;;5.95;;
60314;SDS011;46159;42.550;21.904;2023-07-31T00:38:09;7.88;;;5.60;;
60314;SDS011;46159;42.550;21.904;2023-07-31T00:40:35;9.82;;;5.03;;
60314;SDS011;46159;42.550;21.904;2023-07-31T00:43:02;8.38;;;4.97;;
60314;SDS011;46159;42.550;21.904;2023-07-31T00:45:28;8.07;;;4.40;;
60314;SDS011;46159;42.550;21.904;2023-07-31T00:47:54;7.00;;;3.83;;
60314;SDS011;46159;42.550;21.904;2023-07-31T00:50:22;8.02;;;3.97;;
60314;SDS011;46159;42.550;21.904;2023-07-31T00:52:48;7.18;;;4.10;;
60314;SDS011;46159;42.550;21.904;2023-07-31T00:55:14;8.13;;;4.30;;
60314;SDS011;46159;42.550;21.904;2023-07-31T00:57:40;8.18;;;4.15;;
60314;SDS011;46159;42.550;21.904;2023-07-31T01:00:07;7.25;;;4.10;;
60314;SDS011;46159;42.550;21.904;2023-07-31T01:02:34;7.88;;;4.47;;
60314;SDS011;46159;42.550;21.904;2023-07-31T01:05:00;7.60;;;4.43;;
60314;SDS011;46159;42.550;21.904;2023-07-31T01:07:30;9.88;;;5.60;;
60314;SDS011;46159;42.550;21.904;2023-07-31T01:10:08;9.77;;;6.05;;
60314;SDS011;46159;42.550;21.904;2023-07-31T01:12:36;9.77;;;5.82;;
60314;SDS011;46159;42.550;21.904;2023-07-31T01:15:04;8.65;;;5.55;;
60314;SDS011;46159;42.550;21.904;2023-07-31T01:17:31;13.60;;;5.60;;
60314;SDS011;46159;42.550;21.904;2023-07-31T01:19:59;11.02;;;5.93;;
60314;SDS011;46159;42.550;21.904;2023-07-31T01:27:23;7.95;;;5.32;;
60314;SDS011;46159;42.550;21.904;2023-07-31T01:29:54;10.02;;;5.65;;
60314;SDS011;46159;42.550;21.904;2023-07-31T01:32:22;9.00;;;6.07;;
60314;SDS011;46159;42.550;21.904;2023-07-31T01:34:48;10.68;;;5.90;;
60314;SDS011;46159;42.550;21.904;2023-07-31T01:37:14;8.13;;;5.30;;
60314;SDS011;46159;42.550;21.904;2023-07-31T01:39:40;7.97;;;5.30;;
60314;SDS011;46159;42.550;21.904;2023-07-31T01:42:06;8.32;;;5.28;;
60314;SDS011;46159;42.550;21.904;2023-07-31T01:44:32;11.73;;;6.93;;
60314;SDS011;46159;42.550;21.904;2023-07-31T01:46:58;10.93;;;6.50;;
60314;SDS011;46159;42.550;21.904;2023-07-31T01:49:25;11.98;;;9.18;;
60314;SDS011;46159;42.550;21.904;2023-07-31T01:51:51;12.75;;;7.65;;
60314;SDS011;46159;42.550;21.904;2023-07-31T01:54:17;8.93;;;6.85;;
60314;SDS011;46159;42.550;21.904;2023-07-31T01:56:43;11.32;;;5.95;;
60314;SDS011;46159;42.550;21.904;2023-07-31T01:59:09;8.82;;;5.97;;
60314;SDS011;46159;42.550;21.904;2023-07-31T02:01:35;13.00;;;7.00;;
60314;SDS011;46159;42.550;21.904;2023-07-31T02:04:01;10.50;;;7.03;;
60314;SDS011;46159;42.550;21.904;2023-07-31T02:06:29;9.45;;;7.35;;
60314;SDS011;46159;42.550;21.904;2023-07-31T02:08:57;9.65;;;7.32;;
60314;SDS011;46159;42.550;21.904;2023-07-31T02:11:23;10.20;;;6.95;;
60314;SDS011;46159;42.550;21.904;2023-07-31T02:13:50;9.45;;;7.18;;
60314;SDS011;46159;42.550;21.904;2023-07-31T02:16:16;12.07;;;7.25;;
60314;SDS011;46159;42.550;21.904;2023-07-31T02:18:42;10.95;;;7.50;;
60314;SDS011;46159;42.550;21.904;2023-07-31T02:21:08;10.98;;;7.20;;
60314;SDS011;46159;42.550;21.904;2023-07-31T02:23:34;10.93;;;8.10;;
60314;SDS011;46159;42.550;21.904;2023-07-31T02:26:00;11.18;;;7.82;;
60314;SDS011;46159;42.550;21.904;2023-07-31T02:28:26;13.23;;;7.75;;
60314;SDS011;46159;42.550;21.904;2023-07-31T02:30:52;12.68;;;8.85;;
60314;SDS011;46159;42.550;21.904;2023-07-31T02:33:18;10.45;;;7.95;;
60314;SDS011;46159;42.550;21.904;2023-07-31T02:35:44;10.45;;;7.80;;
60314;SDS011;46159;42.550;21.904;2023-07-31T02:38:10;11.80;;;7.97;;
60314;SDS011;46159;42.550;21.904;2023-07-31T02:40:36;12.95;;;8.10;;
60314;SDS011;46159;42.550;21.904;2023-07-31T02:43:02;9.93;;;6.43;;
60314;SDS011;46159;42.550;21.904;2023-07-31T02:45:29;11.20;;;7.47;;
60314;SDS011;46159;42.550;21.904;2023-07-31T02:47:55;11.90;;;7.88;;
60314;SDS011;46159;42.550;21.904;2023-07-31T02:50:21;11.23;;;7.93;;
60314;SDS011;46159;42.550;21.904;2023-07-31T02:52:47;12.10;;;9.13;;
60314;SDS011;46159;42.550;21.904;2023-07-31T02:55:13;10.57;;;8.60;;
60314;SDS011;46159;42.550;21.904;2023-07-31T02:57:39;10.93;;;8.85;;
60314;SDS011;46159;42.550;21.904;2023-07-31T03:00:06;10.98;;;8.32;;
60314;SDS011;46159;42.550;21.904;2023-07-31T03:02:33;12.73;;;9.88;;
60314;SDS011;46159;42.550;21.904;2023-07-31T03:04:59;11.02;;;9.20;;
60314;SDS011;46159;42.550;21.904;2023-07-31T03:07:25;12.23;;;9.88;;
60314;SDS011;46159;42.550;21.904;2023-07-31T03:09:51;11.95;;;10.15;;
60314;SDS011;46159;42.550;21.904;2023-07-31T03:12:17;13.27;;;10.10;;
60314;SDS011;46159;42.550;21.904;2023-07-31T03:14:44;13.70;;;10.00;;
60314;SDS011;46159;42.550;21.904;2023-07-31T03:17:11;12.82;;;10.77;;
60314;SDS011;46159;42.550;21.904;2023-07-31T03:19:37;12.70;;;11.10;;
60314;SDS011;46159;42.550;21.904;2023-07-31T03:22:03;12.80;;;11.00;;
60314;SDS011;46159;42.550;21.904;2023-07-31T03:24:30;13.38;;;11.95;;
60314;SDS011;46159;42.550;21.904;2023-07-31T03:26:56;17.05;;;12.70;;
60314;SDS011;46159;42.550;21.904;2023-07-31T03:29:22;17.23;;;13.70;;
60314;SDS011;46159;42.550;21.904;2023-07-31T03:31:48;16.08;;;13.02;;
60314;SDS011;46159;42.550;21.904;2023-07-31T03:34:14;15.27;;;13.68;;
60314;SDS011;46159;42.550;21.904;2023-07-31T03:36:40;17.38;;;14.52;;
60314;SDS011;46159;42.550;21.904;2023-07-31T03:39:06;16.30;;;14.52;;
60314;SDS011;46159;42.550;21.904;2023-07-31T03:41:32;16.50;;;14.90;;
60314;SDS011;46159;42.550;21.904;2023-07-31T03:43:58;18.35;;;16.48;;
60314;SDS011;46159;42.550;21.904;2023-07-31T03:46:24;19.10;;;17.20;;
60314;SDS011;46159;42.550;21.904;2023-07-31T03:48:50;16.75;;;14.93;;
60314;SDS011;46159;42.550;21.904;2023-07-31T03:51:17;19.33;;;17.42;;
60314;SDS011;46159;42.550;21.904;2023-07-31T03:53:43;20.83;;;17.88;;
60314;SDS011;46159;42.550;21.904;2023-07-31T03:56:09;16.92;;;15.20;;
60314;SDS011;46159;42.550;21.904;2023-07-31T03:58:35;18.75;;;16.70;;
60314;SDS011;46159;42.550;21.904;2023-07-31T04:01:02;18.88;;;16.15;;
60314;SDS011;46159;42.550;21.904;2023-07-31T04:03:28;18.15;;;16.25;;
60314;SDS011;46159;42.550;21.904;2023-07-31T04:05:55;18.30;;;16.45;;
60314;SDS011;46159;42.550;21.904;2023-07-31T04:08:21;18.20;;;16.40;;
60314;SDS011;46159;42.550;21.904;2023-07-31T04:10:48;18.52;;;16.55;;
60314;SDS011;46159;42.550;21.904;2023-07-31T04:13:14;19.83;;;17.85;;
60314;SDS011;46159;42.550;21.904;2023-07-31T04:15:40;19.15;;;17.27;;
60314;SDS011;46159;42.550;21.904;2023-07-31T04:18:06;20.77;;;18.67;;
60314;SDS011;46159;42.550;21.904;2023-07-31T04:20:32;19.98;;;17.95;;
60314;SDS011;46159;42.550;21.904;2023-07-31T04:22:58;20.02;;;18.05;;
60314;SDS011;46159;42.550;21.904;2023-07-31T04:25:24;18.70;;;16.70;;
60314;SDS011;46159;42.550;21.904;2023-07-31T04:27:51;18.70;;;16.70;;
60314;SDS011;46159;42.550;21.904;2023-07-31T04:30:20;18.77;;;16.67;;
60314;SDS011;46159;42.550;21.904;2023-07-31T04:32:46;20.05;;;16.75;;
60314;SDS011;46159;42.550;21.904;2023-07-31T04:35:12;18.50;;;16.27;;
60314;SDS011;46159;42.550;21.904;2023-07-31T04:37:38;19.45;;;17.45;;
60314;SDS011;46159;42.550;21.904;2023-07-31T04:40:04;19.17;;;17.00;;
60314;SDS011;46159;42.550;21.904;2023-07-31T04:42:30;19.48;;;17.48;;
60314;SDS011;46159;42.550;21.904;2023-07-31T04:44:56;19.50;;;16.67;;
60314;SDS011;46159;42.550;21.904;2023-07-31T04:47:22;18.02;;;16.23;;
60314;SDS011;46159;42.550;21.904;2023-07-31T04:49:48;18.88;;;16.88;;
60314;SDS011;46159;42.550;21.904;2023-07-31T04:52:14;18.05;;;16.08;;
60314;SDS011;46159;42.550;21.904;2023-07-31T04:54:40;21.25;;;17.20;;
60314;SDS011;46159;42.550;21.904;2023-07-31T04:57:06;21.67;;;16.38;;
60314;SDS011;46159;42.550;21.904;2023-07-31T04:59:33;18.27;;;16.13;;
60314;SDS011;46159;42.550;21.904;2023-07-31T05:01:59;17.73;;;15.82;;
60314;SDS011;46159;42.550;21.904;2023-07-31T05:04:25;17.95;;;15.77;;
60314;SDS011;46159;42.550;21.904;2023-07-31T05:06:51;18.67;;;15.88;;
60314;SDS011;46159;42.550;21.904;2023-07-31T05:09:17;19.20;;;17.08;;
60314;SDS011;46159;42.550;21.904;2023-07-31T05:11:43;18.30;;;16.08;;
60314;SDS011;46159;42.550;21.904;2023-07-31T05:14:09;18.90;;;16.83;;
60314;SDS011;46159;42.550;21.904;2023-07-31T05:16:35;18.63;;;16.63;;
60314;SDS011;46159;42.550;21.904;2023-07-31T05:19:01;18.23;;;16.40;;
60314;SDS011;46159;42.550;21.904;2023-07-31T05:21:27;17.75;;;15.95;;
60314;SDS011;46159;42.550;21.904;2023-07-31T05:23:54;18.00;;;16.13;;
60314;SDS011;46159;42.550;21.904;2023-07-31T05:26:21;18.92;;;16.95;;
60314;SDS011;46159;42.550;21.904;2023-07-31T05:28:48;21.42;;;16.77;;
60314;SDS011;46159;42.550;21.904;2023-07-31T05:31:14;20.60;;;15.65;;
60314;SDS011;46159;42.550;21.904;2023-07-31T05:33:40;18.15;;;15.73;;
60314;SDS011;46159;42.550;21.904;2023-07-31T05:36:06;20.85;;;16.10;;
60314;SDS011;46159;42.550;21.904;2023-07-31T05:38:32;20.58;;;17.00;;
60314;SDS011;46159;42.550;21.904;2023-07-31T05:40:58;16.48;;;14.77;;
60314;SDS011;46159;42.550;21.904;2023-07-31T05:43:24;16.35;;;14.60;;
60314;SDS011;46159;42.550;21.904;2023-07-31T05:45:50;17.60;;;15.73;;
60314;SDS011;46159;42.550;21.904;2023-07-31T05:48:17;18.05;;;16.15;;
60314;SDS011;46159;42.550;21.904;2023-07-31T05:50:43;17.42;;;14.88;;
60314;SDS011;46159;42.550;21.904;2023-07-31T05:53:09;18.45;;;15.55;;
60314;SDS011;46159;42.550;21.904;2023-07-31T05:55:36;16.50;;;14.88;;
60314;SDS011;46159;42.550;21.904;2023-07-31T05:58:02;20.65;;;16.40;;
60314;SDS011;46159;42.550;21.904;2023-07-31T06:00:29;17.30;;;15.40;;
60314;SDS011;46159;42.550;21.904;2023-07-31T06:02:55;17.33;;;14.40;;
60314;SDS011;46159;42.550;21.904;2023-07-31T06:05:21;16.88;;;14.70;;
60314;SDS011;46159;42.550;21.904;2023-07-31T06:07:47;16.20;;;14.35;;
60314;SDS011;46159;42.550;21.904;2023-07-31T06:10:13;24.60;;;15.63;;
60314;SDS011;46159;42.550;21.904;2023-07-31T06:12:39;16.10;;;13.13;;
60314;SDS011;46159;42.550;21.904;2023-07-31T06:15:06;15.95;;;13.43;;
60314;SDS011;46159;42.550;21.904;2023-07-31T06:17:32;15.82;;;13.88;;
60314;SDS011;46159;42.550;21.904;2023-07-31T06:19:58;16.17;;;14.48;;
60314;SDS011;46159;42.550;21.904;2023-07-31T06:22:24;16.05;;;13.88;;
60314;SDS011;46159;42.550;21.904;2023-07-31T06:24:50;16.92;;;14.98;;
60314;SDS011;46159;42.550;21.904;2023-07-31T06:27:16;15.85;;;14.10;;
60314;SDS011;46159;42.550;21.904;2023-07-31T06:29:42;16.35;;;14.38;;
60314;SDS011;46159;42.550;21.904;2023-07-31T06:32:08;18.38;;;15.98;;
60314;SDS011;46159;42.550;21.904;2023-07-31T06:34:34;18.30;;;16.40;;
60314;SDS011;46159;42.550;21.904;2023-07-31T06:37:00;16.33;;;14.55;;
60314;SDS011;46159;42.550;21.904;2023-07-31T06:39:26;16.20;;;14.55;;
60314;SDS011;46159;42.550;21.904;2023-07-31T06:41:52;17.42;;;15.65;;
60314;SDS011;46159;42.550;21.904;2023-07-31T06:44:18;18.05;;;15.52;;
60314;SDS011;46159;42.550;21.904;2023-07-31T06:46:44;16.05;;;13.75;;
60314;SDS011;46159;42.550;21.904;2023-07-31T06:49:10;15.85;;;14.15;;
60314;SDS011;46159;42.550;21.904;2023-07-31T06:51:37;16.90;;;15.02;;
60314;SDS011;46159;42.550;21.904;2023-07-31T06:54:03;14.23;;;12.70;;
60314;SDS011;46159;42.550;21.904;2023-07-31T06:56:29;16.15;;;14.45;;
60314;SDS011;46159;42.550;21.904;2023-07-31T06:58:55;15.80;;;14.02;;
60314;SDS011;46159;42.550;21.904;2023-07-31T07:01:21;16.00;;;13.38;;
60314;SDS011;46159;42.550;21.904;2023-07-31T07:03:47;14.43;;;12.93;;
60314;SDS011;46159;42.550;21.904;2023-07-31T07:06:16;15.63;;;14.00;;
60314;SDS011;46159;42.550;21.904;2023-07-31T07:08:42;13.95;;;12.15;;
60314;SDS011;46159;42.550;21.904;2023-07-31T07:11:08;17.20;;;14.02;;
60314;SDS011;46159;42.550;21.904;2023-07-31T07:13:34;15.60;;;14.00;;
60314;SDS011;46159;42.550;21.904;2023-07-31T07:16:01;17.73;;;14.13;;
60314;SDS011;46159;42.550;21.904;2023-07-31T07:18:27;14.20;;;12.05;;
60314;SDS011;46159;42.550;21.904;2023-07-31T07:20:54;15.20;;;13.18;;
60314;SDS011;46159;42.550;21.904;2023-07-31T07:23:22;14.65;;;13.25;;
60314;SDS011;46159;42.550;21.904;2023-07-31T07:25:48;16.92;;;14.00;;
60314;SDS011;46159;42.550;21.904;2023-07-31T07:28:14;15.38;;;13.77;;
60314;SDS011;46159;42.550;21.904;2023-07-31T07:30:40;13.38;;;11.98;;
60314;SDS011;46159;42.550;21.904;2023-07-31T07:33:06;12.48;;;11.18;;
60314;SDS011;46159;42.550;21.904;2023-07-31T07:35:33;13.10;;;11.38;;
60314;SDS011;46159;42.550;21.904;2023-07-31T07:38:00;11.13;;;9.50;;
60314;SDS011;46159;42.550;21.904;2023-07-31T07:40:26;12.88;;;9.48;;
60314;SDS011;46159;42.550;21.904;2023-07-31T07:42:52;11.07;;;9.60;;
60314;SDS011;46159;42.550;21.904;2023-07-31T07:45:18;11.23;;;8.88;;
60314;SDS011;46159;42.550;21.904;2023-07-31T07:47:44;13.38;;;10.70;;
60314;SDS011;46159;42.550;21.904;2023-07-31T07:50:10;9.68;;;8.02;;
60314;SDS011;46159;42.550;21.904;2023-07-31T07:52:36;11.35;;;8.52;;
60314;SDS011;46159;42.550;21.904;2023-07-31T07:55:03;8.55;;;6.15;;
60314;SDS011;46159;42.550;21.904;2023-07-31T07:57:29;7.30;;;5.15;;
60314;SDS011;46159;42.550;21.904;2023-07-31T07:59:55;10.43;;;5.65;;
60314;SDS011;46159;42.550;21.904;2023-07-31T08:02:21;8.85;;;6.25;;
60314;SDS011;46159;42.550;21.904;2023-07-31T08:04:48;8.02;;;6.22;;
60314;SDS011;46159;42.550;21.904;2023-07-31T08:07:14;8.65;;;6.43;;
60314;SDS011;46159;42.550;21.904;2023-07-31T08:09:40;8.00;;;5.65;;
60314;SDS011;46159;42.550;21.904;2023-07-31T08:12:06;13.15;;;5.85;;
60314;SDS011;46159;42.550;21.904;2023-07-31T08:14:33;9.90;;;6.70;;
60314;SDS011;46159;42.550;21.904;2023-07-31T08:16:59;8.18;;;5.90;;
60314;SDS011;46159;42.550;21.904;2023-07-31T08:19:26;7.95;;;5.53;;
60314;SDS011;46159;42.550;21.904;2023-07-31T08:21:52;10.15;;;5.93;;
60314;SDS011;46159;42.550;21.904;2023-07-31T08:24:18;8.70;;;5.85;;
60314;SDS011;46159;42.550;21.904;2023-07-31T08:26:44;31.92;;;7.35;;
60314;SDS011;46159;42.550;21.904;2023-07-31T08:29:10;13.15;;;5.80;;
60314;SDS011;46159;42.550;21.904;2023-07-31T08:31:36;8.65;;;5.60;;
60314;SDS011;46159;42.550;21.904;2023-07-31T08:34:02;13.68;;;10.57;;
60314;SDS011;46159;42.550;21.904;2023-07-31T08:36:28;11.60;;;5.90;;
60314;SDS011;46159;42.550;21.904;2023-07-31T08:38:54;8.18;;;5.13;;
60314;SDS011;46159;42.550;21.904;2023-07-31T08:41:20;8.50;;;5.50;;
60314;SDS011;46159;42.550;21.904;2023-07-31T08:43:46;8.88;;;6.60;;
60314;SDS011;46159;42.550;21.904;2023-07-31T08:46:13;8.75;;;5.60;;
60314;SDS011;46159;42.550;21.904;2023-07-31T08:48:41;8.23;;;5.28;;
60314;SDS011;46159;42.550;21.904;2023-07-31T08:51:07;8.75;;;6.50;;
60314;SDS011;46159;42.550;21.904;2023-07-31T08:53:33;12.18;;;6.97;;
60314;SDS011;46159;42.550;21.904;2023-07-31T08:55:59;7.93;;;6.25;;
60314;SDS011;46159;42.550;21.904;2023-07-31T08:58:27;14.55;;;9.00;;
60314;SDS011;46159;42.550;21.904;2023-07-31T09:00:56;11.50;;;10.30;;
60314;SDS011;46159;42.550;21.904;2023-07-31T09:03:23;10.05;;;7.85;;
60314;SDS011;46159;42.550;21.904;2023-07-31T09:05:50;9.73;;;8.15;;
60314;SDS011;46159;42.550;21.904;2023-07-31T09:08:20;10.35;;;7.57;;
60314;SDS011;46159;42.550;21.904;2023-07-31T09:10:47;8.57;;;7.28;;
60314;SDS011;46159;42.550;21.904;2023-07-31T09:13:15;13.10;;;8.18;;
60314;SDS011;46159;42.550;21.904;2023-07-31T09:15:42;12.15;;;9.68;;
60314;SDS011;46159;42.550;21.904;2023-07-31T09:18:08;8.43;;;6.72;;
60314;SDS011;46159;42.550;21.904;2023-07-31T09:20:35;8.98;;;5.88;;
60314;SDS011;46159;42.550;21.904;2023-07-31T09:23:12;7.38;;;5.32;;
60314;SDS011;46159;42.550;21.904;2023-07-31T09:25:39;9.70;;;6.47;;
60314;SDS011;46159;42.550;21.904;2023-07-31T09:28:06;8.85;;;6.28;;
60314;SDS011;46159;42.550;21.904;2023-07-31T09:30:49;10.30;;;6.55;;
60314;SDS011;46159;42.550;21.904;2023-07-31T09:33:15;9.70;;;6.63;;
60314;SDS011;46159;42.550;21.904;2023-07-31T09:35:42;9.80;;;5.90;;
60314;SDS011;46159;42.550;21.904;2023-07-31T09:38:14;64.30;;;58.40;;
60314;SDS011;46159;42.550;21.904;2023-07-31T09:40:41;9.98;;;6.22;;
60314;SDS011;46159;42.550;21.904;2023-07-31T09:43:11;11.38;;;9.52;;
60314;SDS011;46159;42.550;21.904;2023-07-31T09:45:39;9.35;;;6.00;;
60314;SDS011;46159;42.550;21.904;2023-07-31T09:48:09;8.77;;;6.05;;
60314;SDS011;46159;42.550;21.904;2023-07-31T09:50:38;8.50;;;5.90;;
60314;SDS011;46159;42.550;21.904;2023-07-31T09:53:05;8.55;;;6.72;;
60314;SDS011;46159;42.550;21.904;2023-07-31T09:55:33;8.75;;;6.20;;
60314;SDS011;46159;42.550;21.904;2023-07-31T09:58:00;8.07;;;5.70;;
60314;SDS011;46159;42.550;21.904;2023-07-31T10:00:28;7.95;;;6.13;;
60314;SDS011;46159;42.550;21.904;2023-07-31T10:02:57;9.27;;;6.25;;
60314;SDS011;46159;42.550;21.904;2023-07-31T10:05:24;8.38;;;6.57;;
60314;SDS011;46159;42.550;21.904;2023-07-31T10:07:55;9.43;;;6.35;;
60314;SDS011;46159;42.550;21.904;2023-07-31T10:10:23;10.57;;;6.32;;
60314;SDS011;46159;42.550;21.904;2023-07-31T10:12:49;8.32;;;6.07;;
60314;SDS011;46159;42.550;21.904;2023-07-31T10:15:16;7.65;;;5.90;;
60314;SDS011;46159;42.550;21.904;2023-07-31T10:17:42;9.20;;;6.55;;
60314;SDS011;46159;42.550;21.904;2023-07-31T10:20:08;15.10;;;12.85;;
60314;SDS011;46159;42.550;21.904;2023-07-31T10:22:35;9.80;;;6.22;;
60314;SDS011;46159;42.550;21.904;2023-07-31T10:25:01;8.25;;;6.50;;
60314;SDS011;46159;42.550;21.904;2023-07-31T10:27:27;8.77;;;5.60;;
60314;SDS011;46159;42.550;21.904;2023-07-31T10:29:54;9.38;;;6.00;;
60314;SDS011;46159;42.550;21.904;2023-07-31T10:32:21;8.25;;;6.20;;
60314;SDS011;46159;42.550;21.904;2023-07-31T10:34:48;8.55;;;6.43;;
60314;SDS011;46159;42.550;21.904;2023-07-31T10:37:36;11.10;;;6.32;;
60314;SDS011;46159;42.550;21.904;2023-07-31T10:40:02;8.13;;;6.00;;
60314;SDS011;46159;42.550;21.904;2023-07-31T10:42:45;9.43;;;6.85;;
60314;SDS011;46159;42.550;21.904;2023-07-31T10:45:12;8.85;;;5.97;;
60314;SDS011;46159;42.550;21.904;2023-07-31T10:47:42;10.10;;;7.03;;
60314;SDS011;46159;42.550;21.904;2023-07-31T10:50:12;8.20;;;6.38;;
60314;SDS011;46159;42.550;21.904;2023-07-31T10:52:38;8.55;;;6.15;;
60314;SDS011;46159;42.550;21.904;2023-07-31T10:57:47;8.82;;;6.55;;
60314;SDS011;46159;42.550;21.904;2023-07-31T11:00:31;8.40;;;6.78;;
60314;SDS011;46159;42.550;21.904;2023-07-31T11:08:20;10.18;;;6.10;;
60314;SDS011;46159;42.550;21.904;2023-07-31T11:10:48;8.02;;;5.72;;
60314;SDS011;46159;42.550;21.904;2023-07-31T11:13:14;7.82;;;5.57;;
60314;SDS011;46159;42.550;21.904;2023-07-31T11:15:41;8.73;;;6.45;;
60314;SDS011;46159;42.550;21.904;2023-07-31T11:18:07;8.07;;;5.57;;
60314;SDS011;46159;42.550;21.904;2023-07-31T11:20:35;8.45;;;6.22;;
60314;SDS011;46159;42.550;21.904;2023-07-31T11:23:02;7.47;;;5.53;;
60314;SDS011;46159;42.550;21.904;2023-07-31T11:25:29;7.57;;;5.47;;
60314;SDS011;46159;42.550;21.904;2023-07-31T11:27:56;7.90;;;5.55;;
60314;SDS011;46159;42.550;21.904;2023-07-31T11:30:22;7.88;;;5.82;;
60314;SDS011;46159;42.550;21.904;2023-07-31T11:32:49;8.18;;;6.30;;
60314;SDS011;46159;42.550;21.904;2023-07-31T11:35:16;8.38;;;6.03;;
60314;SDS011;46159;42.550;21.904;2023-07-31T11:37:43;8.57;;;5.95;;
60314;SDS011;46159;42.550;21.904;2023-07-31T11:40:10;8.48;;;5.93;;
60314;SDS011;46159;42.550;21.904;2023-07-31T11:42:37;8.10;;;6.03;;
60314;SDS011;46159;42.550;21.904;2023-07-31T11:45:07;7.55;;;5.75;;
60314;SDS011;46159;42.550;21.904;2023-07-31T11:47:34;8.05;;;5.60;;
60314;SDS011;46159;42.550;21.904;2023-07-31T11:50:04;8.95;;;6.22;;
60314;SDS011;46159;42.550;21.904;2023-07-31T11:52:31;10.98;;;6.45;;
60314;SDS011;46159;42.550;21.904;2023-07-31T11:54:59;8.68;;;6.07;;
60314;SDS011;46159;42.550;21.904;2023-07-31T11:57:25;9.23;;;6.63;;
60314;SDS011;46159;42.550;21.904;2023-07-31T11:59:51;10.68;;;7.43;;
60314;SDS011;46159;42.550;21.904;2023-07-31T12:02:18;8.38;;;6.00;;
60314;SDS011;46159;42.550;21.904;2023-07-31T12:04:46;8.75;;;6.75;;
60314;SDS011;46159;42.550;21.904;2023-07-31T12:07:12;11.95;;;8.07;;
60314;SDS011;46159;42.550;21.904;2023-07-31T12:09:38;9.85;;;7.90;;
60314;SDS011;46159;42.550;21.904;2023-07-31T12:12:07;9.65;;;7.07;;
60314;SDS011;46159;42.550;21.904;2023-07-31T12:14:34;11.60;;;7.88;;
60314;SDS011;46159;42.550;21.904;2023-07-31T12:17:04;10.73;;;8.23;;
60314;SDS011;46159;42.550;21.904;2023-07-31T12:19:32;10.30;;;7.53;;
60314;SDS011;46159;42.550;21.904;2023-07-31T12:21:59;10.23;;;7.75;;
60314;SDS011;46159;42.550;21.904;2023-07-31T12:24:28;11.60;;;8.45;;
60314;SDS011;46159;42.550;21.904;2023-07-31T12:26:54;10.45;;;7.80;;
60314;SDS011;46159;42.550;21.904;2023-07-31T12:29:20;8.43;;;6.75;;
60314;SDS011;46159;42.550;21.904;2023-07-31T12:31:46;8.05;;;5.93;;
60314;SDS011;46159;42.550;21.904;2023-07-31T12:34:18;9.52;;;6.88;;
60314;SDS011;46159;42.550;21.904;2023-07-31T12:36:46;10.05;;;7.60;;
60314;SDS011;46159;42.550;21.904;2023-07-31T12:39:14;10.73;;;7.78;;
60314;SDS011;46159;42.550;21.904;2023-07-31T12:41:40;11.23;;;7.60;;
60314;SDS011;46159;42.550;21.904;2023-07-31T12:44:06;12.93;;;7.70;;
60314;SDS011;46159;42.550;21.904;2023-07-31T12:46:32;11.77;;;7.85;;
60314;SDS011;46159;42.550;21.904;2023-07-31T12:48:58;12.63;;;7.53;;
60314;SDS011;46159;42.550;21.904;2023-07-31T12:51:24;9.73;;;7.25;;
60314;SDS011;46159;42.550;21.904;2023-07-31T12:53:50;8.98;;;7.45;;
60314;SDS011;46159;42.550;21.904;2023-07-31T12:56:16;9.00;;;6.93;;
60314;SDS011;46159;42.550;21.904;2023-07-31T12:58:43;11.20;;;8.15;;
60314;SDS011;46159;42.550;21.904;2023-07-31T13:01:09;11.25;;;7.80;;
60314;SDS011;46159;42.550;21.904;2023-07-31T13:03:35;9.57;;;7.05;;
60314;SDS011;46159;42.550;21.904;2023-07-31T13:06:02;9.23;;;6.45;;
60314;SDS011;46159;42.550;21.904;2023-07-31T13:08:28;8.10;;;5.60;;
60314;SDS011;46159;42.550;21.904;2023-07-31T13:10:54;6.80;;;4.35;;
60314;SDS011;46159;42.550;21.904;2023-07-31T13:13:20;9.38;;;5.50;;
60314;SDS011;46159;42.550;21.904;2023-07-31T13:15:47;7.90;;;4.90;;
60314;SDS011;46159;42.550;21.904;2023-07-31T13:18:13;10.85;;;5.80;;
60314;SDS011;46159;42.550;21.904;2023-07-31T13:20:39;9.40;;;5.18;;
60314;SDS011;46159;42.550;21.904;2023-07-31T13:23:05;7.43;;;5.10;;
60314;SDS011;46159;42.550;21.904;2023-07-31T13:25:31;7.03;;;4.38;;
60314;SDS011;46159;42.550;21.904;2023-07-31T13:27:57;7.50;;;4.70;;
60314;SDS011;46159;42.550;21.904;2023-07-31T13:30:23;9.02;;;4.95;;
60314;SDS011;46159;42.550;21.904;2023-07-31T13:32:49;8.68;;;4.60;;
60314;SDS011;46159;42.550;21.904;2023-07-31T13:35:15;9.13;;;5.70;;
60314;SDS011;46159;42.550;21.904;2023-07-31T13:37:41;7.43;;;5.25;;
60314;SDS011;46159;42.550;21.904;2023-07-31T13:40:08;8.52;;;5.43;;
60314;SDS011;46159;42.550;21.904;2023-07-31T13:42:34;8.82;;;5.47;;
60314;SDS011;46159;42.550;21.904;2023-07-31T13:45:00;8.02;;;4.35;;
60314;SDS011;46159;42.550;21.904;2023-07-31T13:47:26;6.63;;;3.75;;
60314;SDS011;46159;42.550;21.904;2023-07-31T13:49:52;9.20;;;3.72;;
60314;SDS011;46159;42.550;21.904;2023-07-31T13:52:18;7.47;;;3.65;;
60314;SDS011;46159;42.550;21.904;2023-07-31T13:54:44;6.75;;;2.83;;
60314;SDS011;46159;42.550;21.904;2023-07-31T13:57:10;7.40;;;3.78;;
60314;SDS011;46159;42.550;21.904;2023-07-31T13:59:36;5.85;;;2.72;;
60314;SDS011;46159;42.550;21.904;2023-07-31T14:02:02;7.07;;;3.90;;
60314;SDS011;46159;42.550;21.904;2023-07-31T14:04:29;5.57;;;2.63;;
60314;SDS011;46159;42.550;21.904;2023-07-31T14:06:55;6.80;;;3.05;;
60314;SDS011;46159;42.550;21.904;2023-07-31T14:09:21;6.70;;;3.20;;
60314;SDS011;46159;42.550;21.904;2023-07-31T14:11:47;6.22;;;3.20;;
60314;SDS011;46159;42.550;21.904;2023-07-31T14:14:13;6.15;;;2.63;;
60314;SDS011;46159;42.550;21.904;2023-07-31T14:16:39;5.45;;;2.78;;
60314;SDS011;46159;42.550;21.904;2023-07-31T14:19:05;5.18;;;2.58;;
60314;SDS011;46159;42.550;21.904;2023-07-31T14:21:33;5.82;;;2.97;;
60314;SDS011;46159;42.550;21.904;2023-07-31T14:23:59;10.32;;;6.35;;
60314;SDS011;46159;42.550;21.904;2023-07-31T14:26:25;6.10;;;3.10;;
60314;SDS011;46159;42.550;21.904;2023-07-31T14:28:51;8.60;;;3.00;;
60314;SDS011;46159;42.550;21.904;2023-07-31T14:31:17;5.60;;;2.90;;
60314;SDS011;46159;42.550;21.904;2023-07-31T14:33:44;5.50;;;2.17;;